Cascade Township, Michigan
Current Conditions -  °F | °C
As of 6:53 PM on Friday 24 Oct 2014 (Local Time) from KGRR Reporting Station
Scattered Clouds Scattered Clouds  
Wind Chill: 55°   Ceiling: Unl
Heat Index: 55°   Visibility: 7mi
Dew Point: 49°   Wind: 6mph
Humidity: 80%   Direction: 260°W
Pressure: 29.98"   Gusts: NA
Location:  42.9365°N, 85.5426°W
Report Text: KGRR 242253Z 26005KT 7SM FEW140 SCT250 13/09 A2998 RMK AO2 SLP154 T01280094
Loading
Personal Weather Stations






























Interactive Weather Map
Tropical Storm Tracking
New forecast layout! Learn more

10-Day Weather Forecast

Advertisements
Track Severe Weather on mobile